Time;durP1;ratioP1;P1;durP2;ratioP2;P2;SDS_P1;SDS_P2;PMS_P1;PMS_P2;Temp;Humidity;BMP_temperature;BMP_pressure;BME280_temperature;BME280_humidity;BME280_pressure;Samples;Min_cycle;Max_cycle;Signal;HPM_P1;HPM_P2
2024/04/20 00:00:04;;;;;;;;;;;;;;;6.64;100.00;101445.16;5328039;26;20271;-72
2024/04/20 00:02:30;;;;;;;;;;;;;;;6.67;100.00;101452.03;5326142;26;19975;-73
2024/04/20 00:04:55;;;;;;;;;;;;;;;6.70;100.00;101449.88;5326397;26;19930;-73
2024/04/20 00:07:20;;;;;;;;;;;;;;;6.67;100.00;101447.53;5328739;26;19937;-73
2024/04/20 00:09:45;;;;;;;;;;;;;;;6.09;100.00;101385.03;5327132;26;19999;-73
2024/04/20 00:12:11;;;;;;;;;;;;;;;6.75;100.00;101452.06;5324755;26;20345;-73
2024/04/20 00:14:36;;;;;;;;;;;;;;;6.62;100.00;101456.97;5328007;26;19941;-73
2024/04/20 00:17:01;;;;;;;;;;;;;;;6.64;100.00;101457.66;5327006;26;19949;-73
2024/04/20 00:19:27;;;;;;;;;;;;;;;6.71;100.00;101459.56;5325681;26;19938;-73
2024/04/20 00:21:52;;;;;;;;;;;;;;;6.36;100.00;101465.81;5326739;26;19947;-73
2024/04/20 00:24:18;;;;;;;;;;;;;;;6.65;100.00;101462.00;5327715;26;20367;-73
2024/04/20 00:26:43;;;;;;;;;;;;;;;6.70;100.00;101462.38;5310990;26;19938;-73
2024/04/20 00:29:08;;;;;;;;;;;;;;;6.57;100.00;101460.97;5330392;26;19930;-73
2024/04/20 00:31:34;;;;;;;;;;;;;;;6.73;100.00;101462.03;5333860;26;19942;-73
2024/04/20 00:33:59;;;;;;;;;;;;;;;6.87;100.00;101464.13;5331118;26;19930;-73
2024/04/20 00:36:24;;;;;;;;;;;;;;;6.74;100.00;101471.72;5331015;26;19937;-73
2024/04/20 00:38:55;;;;;;;;;;;;;;;6.61;100.00;101469.47;5329520;26;19945;-72
2024/04/20 00:41:21;;;;;;;;;;;;;;;6.81;100.00;101472.75;5333489;26;20032;-73
2024/04/20 00:43:46;;;;;;;;;;;;;;;6.81;100.00;101466.59;5332496;26;19950;-73
2024/04/20 00:46:12;;;;;;;;;;;;;;;6.71;100.00;101475.56;5331996;26;19937;-73
2024/04/20 00:48:37;;;;;;;;;;;;;;;6.89;100.00;101475.47;5330145;26;19934;-73
2024/04/20 00:51:03;;;;;;;;;;;;;;;6.85;100.00;101478.59;5331790;26;20409;-72
2024/04/20 00:53:29;;;;;;;;;;;;;;;7.06;100.00;101483.53;5306271;26;19944;-73
2024/04/20 00:55:55;;;;;;;;;;;;;;;6.99;100.00;101478.00;5300774;26;20004;-73
2024/04/20 00:58:20;;;;;;;;;;;;;;;6.97;100.00;101485.31;5328343;26;19938;-73
2024/04/20 01:00:47;;;;;;;;;;;;;;;7.07;100.00;101486.06;5295419;26;19938;-73
2024/04/20 01:03:12;;;;;;;;;;;;;;;6.94;100.00;101485.66;5327326;26;19930;-73
2024/04/20 01:05:38;;;;;;;;;;;;;;;6.89;100.00;101486.16;5329742;26;19942;-73
2024/04/20 01:08:04;;;;;;;;;;;;;;;7.00;100.00;101496.53;5300428;26;19930;-73
2024/04/20 01:10:29;;;;;;;;;;;;;;;7.01;100.00;101487.53;5333420;26;19938;-73
2024/04/20 01:13:04;;;;;;;;;;;;;;;6.97;100.00;101491.53;5327148;26;19937;-73
2024/04/20 01:15:30;;;;;;;;;;;;;;;6.85;100.00;101491.94;5328272;26;20349;-73
2024/04/20 01:17:55;;;;;;;;;;;;;;;6.92;100.00;101501.00;5329698;26;19969;-73
2024/04/20 01:20:20;;;;;;;;;;;;;;;6.91;100.00;101499.31;5330699;26;20034;-73
2024/04/20 01:22:46;;;;;;;;;;;;;;;7.01;100.00;101506.19;5329364;26;20391;-72
2024/04/20 01:25:12;;;;;;;;;;;;;;;6.94;100.00;101504.31;5299012;26;19942;-72
2024/04/20 01:27:38;;;;;;;;;;;;;;;7.01;100.00;101513.38;5330336;26;20336;-73
2024/04/20 01:30:08;;;;;;;;;;;;;;;7.09;100.00;101509.88;5297193;26;19944;-73
2024/04/20 01:32:33;;;;;;;;;;;;;;;7.05;100.00;101516.56;5298575;26;19938;-73
2024/04/20 01:34:58;;;;;;;;;;;;;;;7.12;100.00;101521.09;5327576;26;20323;-73
2024/04/20 01:37:24;;;;;;;;;;;;;;;7.12;100.00;101520.28;5327518;26;19945;-73
2024/04/20 01:39:49;;;;;;;;;;;;;;;7.10;100.00;101519.59;5327523;26;19937;-73
2024/04/20 01:42:14;;;;;;;;;;;;;;;7.04;100.00;101528.22;5299953;26;20315;-73
2024/04/20 01:44:39;;;;;;;;;;;;;;;7.17;100.00;101523.28;5328093;26;20070;-73
2024/04/20 01:47:05;;;;;;;;;;;;;;;7.11;100.00;101534.59;5328332;26;20390;-73
2024/04/20 01:49:30;;;;;;;;;;;;;;;7.18;100.00;101535.63;5295900;26;19930;-73
2024/04/20 01:51:55;;;;;;;;;;;;;;;7.26;100.00;101530.31;5327886;26;20203;-72
2024/04/20 01:54:20;;;;;;;;;;;;;;;7.18;100.00;101535.63;5322096;26;20379;-73
2024/04/20 01:56:46;;;;;;;;;;;;;;;7.18;100.00;101540.97;5328459;26;19930;-73
2024/04/20 01:59:11;;;;;;;;;;;;;;;7.29;100.00;101546.03;5327346;26;19958;-72
2024/04/20 02:01:41;;;;;;;;;;;;;;;7.28;100.00;101547.00;5327773;26;20359;-73
2024/04/20 02:04:06;;;;;;;;;;;;;;;7.22;100.00;101553.00;5323659;26;19931;-73
2024/04/20 02:06:31;;;;;;;;;;;;;;;7.01;100.00;101556.88;5324459;26;20165;-73
2024/04/20 02:08:58;;;;;;;;;;;;;;;7.08;100.00;101564.25;5327855;26;19929;-73
2024/04/20 02:11:23;;;;;;;;;;;;;;;7.15;100.00;101559.97;5301789;26;19945;-73
2024/04/20 02:13:48;;;;;;;;;;;;;;;7.30;100.00;101560.22;5299165;26;19942;-73
2024/04/20 02:16:14;;;;;;;;;;;;;;;7.35;100.00;101561.41;5327679;26;20049;-73
2024/04/20 02:18:40;;;;;;;;;;;;;;;7.18;100.00;101573.00;5329161;26;19933;-73
2024/04/20 02:21:05;;;;;;;;;;;;;;;7.13;100.00;101568.13;5326585;26;19930;-73
2024/04/20 02:23:30;;;;;;;;;;;;;;;7.33;100.00;101570.56;5327881;26;19938;-73
2024/04/20 02:25:56;;;;;;;;;;;;;;;7.21;100.00;101568.16;5324671;26;19950;-73
2024/04/20 02:28:21;;;;;;;;;;;;;;;7.18;100.00;101570.31;5327644;26;20044;-73
2024/04/20 02:30:47;;;;;;;;;;;;;;;7.22;100.00;101574.34;5328771;26;20372;-73
2024/04/20 02:33:12;;;;;;;;;;;;;;;7.22;100.00;101574.34;5329013;26;19930;-73
2024/04/20 02:35:38;;;;;;;;;;;;;;;7.31;100.00;101569.88;5329522;26;19937;-73
2024/04/20 02:38:03;;;;;;;;;;;;;;;7.44;100.00;101567.63;5326924;26;20008;-73
2024/04/20 02:40:29;;;;;;;;;;;;;;;7.27;100.00;101579.22;5325379;26;20279;-73
2024/04/20 02:42:54;;;;;;;;;;;;;;;7.30;100.00;101576.22;5329548;26;19930;-73
2024/04/20 02:45:19;;;;;;;;;;;;;;;7.11;100.00;101580.78;5303429;26;19984;-73
2024/04/20 02:47:45;;;;;;;;;;;;;;;7.38;100.00;101584.28;5326213;26;20556;-72
2024/04/20 02:50:10;;;;;;;;;;;;;;;7.16;100.00;101590.97;5328632;26;20007;-73
2024/04/20 02:52:35;;;;;;;;;;;;;;;7.38;100.00;101586.94;5327541;26;19937;-73
2024/04/20 02:55:00;;;;;;;;;;;;;;;7.28;100.00;101587.03;5329732;26;20372;-73
2024/04/20 02:57:26;;;;;;;;;;;;;;;7.25;100.00;101595.38;5332802;26;20276;-73
2024/04/20 02:59:51;;;;;;;;;;;;;;;7.29;100.00;101596.75;5329033;26;19930;-73
2024/04/20 03:02:16;;;;;;;;;;;;;;;7.32;100.00;101603.56;5329966;26;19930;-73
2024/04/20 03:04:41;;;;;;;;;;;;;;;7.33;100.00;101603.41;5328926;26;19938;-73
2024/04/20 03:07:07;;;;;;;;;;;;;;;7.22;100.00;101609.84;5329107;26;19938;-73
2024/04/20 03:09:32;;;;;;;;;;;;;;;7.21;100.00;101610.84;5324684;26;19942;-73
2024/04/20 03:11:57;;;;;;;;;;;;;;;7.26;100.00;101607.69;5322804;26;19937;-73
2024/04/20 03:14:23;;;;;;;;;;;;;;;7.23;100.00;101605.34;5340078;26;19945;-73
2024/04/20 03:16:48;;;;;;;;;;;;;;;7.35;100.00;101611.28;5328825;26;19938;-73
2024/04/20 03:19:13;;;;;;;;;;;;;;;7.36;100.00;101619.13;5327696;26;20355;-73
2024/04/20 03:21:38;;;;;;;;;;;;;;;7.24;100.00;101613.22;5330982;26;19946;-73
2024/04/20 03:24:04;;;;;;;;;;;;;;;7.10;100.00;101611.13;5330462;26;19937;-73
2024/04/20 03:26:29;;;;;;;;;;;;;;;7.27;100.00;101617.41;5327529;26;20008;-73
2024/04/20 03:28:54;;;;;;;;;;;;;;;7.12;100.00;101622.47;5329848;26;20065;-73
2024/04/20 03:31:20;;;;;;;;;;;;;;;7.14;100.00;101620.47;5330730;26;19938;-73
2024/04/20 03:33:45;;;;;;;;;;;;;;;7.06;100.00;101625.78;5330857;26;20249;-73
2024/04/20 03:36:11;;;;;;;;;;;;;;;7.05;100.00;101634.75;5330227;26;19937;-73
2024/04/20 03:38:36;;;;;;;;;;;;;;;7.10;100.00;101637.81;5325040;26;19934;-73
2024/04/20 03:41:03;;;;;;;;;;;;;;;7.06;100.00;101628.44;5330559;26;20528;-73
2024/04/20 03:43:29;;;;;;;;;;;;;;;7.06;100.00;101635.59;5325389;26;19930;-73
2024/04/20 03:45:54;;;;;;;;;;;;;;;7.04;100.00;101649.09;5329645;26;19936;-73
2024/04/20 03:48:20;;;;;;;;;;;;;;;6.94;100.00;101635.00;5325127;26;20337;-73
2024/04/20 03:50:56;;;;;;;;;;;;;;;6.91;100.00;101646.81;5326486;26;20298;-73
2024/04/20 03:53:22;;;;;;;;;;;;;;;7.03;100.00;101639.44;5328887;26;19930;-73
2024/04/20 03:55:48;;;;;;;;;;;;;;;6.92;100.00;101627.19;5326917;26;19930;-73
2024/04/20 03:58:13;;;;;;;;;;;;;;;7.00;100.00;101653.91;5300717;26;19930;-73
2024/04/20 04:00:38;;;;;;;;;;;;;;;6.92;100.00;101658.34;5301547;26;19982;-73
2024/04/20 04:03:04;;;;;;;;;;;;;;;7.00;100.00;101667.25;5328498;26;20024;-73
2024/04/20 04:05:29;;;;;;;;;;;;;;;6.95;100.00;101674.03;5330198;26;19930;-73
2024/04/20 04:07:54;;;;;;;;;;;;;;;7.07;100.00;101667.47;5333498;26;19930;-73
2024/04/20 04:10:20;;;;;;;;;;;;;;;7.07;100.00;101669.28;5301598;26;20335;-73
2024/04/20 04:12:45;;;;;;;;;;;;;;;6.97;100.00;101672.03;5325252;26;19964;-73
2024/04/20 04:15:10;;;;;;;;;;;;;;;7.03;100.00;101671.44;5331882;26;19980;-73
2024/04/20 04:17:36;;;;;;;;;;;;;;;6.95;100.00;101674.88;5327801;26;20291;-73
2024/04/20 04:20:01;;;;;;;;;;;;;;;7.01;100.00;101682.25;5322956;26;23592;-73
2024/04/20 04:22:27;;;;;;;;;;;;;;;7.07;100.00;101678.13;5297011;26;19941;-73
2024/04/20 04:24:53;;;;;;;;;;;;;;;6.97;100.00;101683.56;5327309;26;19938;-73
2024/04/20 04:27:18;;;;;;;;;;;;;;;6.96;100.00;101694.38;5300193;26;19938;-72
2024/04/20 04:29:43;;;;;;;;;;;;;;;7.11;100.00;101689.31;5331463;26;19944;-73
2024/04/20 04:32:09;;;;;;;;;;;;;;;7.09;100.00;101696.63;5330890;26;20156;-73
2024/04/20 04:34:35;;;;;;;;;;;;;;;7.08;100.00;101693.13;5331776;26;20019;-73
2024/04/20 04:37:01;;;;;;;;;;;;;;;6.97;100.00;101696.91;5328933;26;19971;-73
2024/04/20 04:39:26;;;;;;;;;;;;;;;7.04;100.00;101706.94;5301198;26;19943;-73
2024/04/20 04:41:51;;;;;;;;;;;;;;;7.07;100.00;101709.31;5333122;26;19981;-73
2024/04/20 04:44:16;;;;;;;;;;;;;;;7.00;100.00;101715.25;5331775;26;19937;-73
2024/04/20 04:46:42;;;;;;;;;;;;;;;7.05;100.00;101712.13;5334291;26;19962;-73
2024/04/20 04:49:07;;;;;;;;;;;;;;;7.08;100.00;101709.13;5330226;26;19966;-73
2024/04/20 04:51:32;;;;;;;;;;;;;;;7.05;100.00;101714.78;5328957;26;19930;-73
2024/04/20 04:53:58;;;;;;;;;;;;;;;7.05;100.00;101722.78;5327118;26;19931;-73
2024/04/20 04:56:23;;;;;;;;;;;;;;;7.12;100.00;101715.84;5331859;26;19937;-73
2024/04/20 04:58:48;;;;;;;;;;;;;;;7.02;100.00;101712.44;5332637;26;20010;-73
2024/04/20 05:01:14;;;;;;;;;;;;;;;7.16;100.00;101716.38;5330743;26;19937;-73
2024/04/20 05:03:39;;;;;;;;;;;;;;;7.25;100.00;101723.44;5329895;26;19954;-73
2024/04/20 05:06:04;;;;;;;;;;;;;;;7.22;100.00;101723.75;5328572;26;20810;-73
2024/04/20 05:08:29;;;;;;;;;;;;;;;7.16;100.00;101727.06;5330317;26;20376;-73
2024/04/20 05:10:55;;;;;;;;;;;;;;;7.15;100.00;101728.88;5331382;26;19937;-73
2024/04/20 05:13:20;;;;;;;;;;;;;;;6.87;100.00;101730.81;5327853;26;20003;-73
2024/04/20 05:15:45;;;;;;;;;;;;;;;7.02;100.00;101734.59;5300658;26;19957;-73
2024/04/20 05:18:11;;;;;;;;;;;;;;;7.15;100.00;101731.56;5331550;26;20544;-73
2024/04/20 05:20:37;;;;;;;;;;;;;;;7.23;100.00;101739.63;5327194;26;23575;-73
2024/04/20 05:23:02;;;;;;;;;;;;;;;7.29;100.00;101730.16;5328418;26;19941;-73
2024/04/20 05:25:27;;;;;;;;;;;;;;;7.22;100.00;101732.59;5293937;26;23957;-74
2024/04/20 05:27:53;;;;;;;;;;;;;;;7.14;100.00;101742.38;5299559;26;19930;-73
2024/04/20 05:30:18;;;;;;;;;;;;;;;7.25;100.00;101736.78;5327058;26;20387;-73
2024/04/20 05:32:43;;;;;;;;;;;;;;;7.36;100.00;101741.06;5330545;26;19954;-73
2024/04/20 05:35:09;;;;;;;;;;;;;;;7.33;100.00;101749.38;5335634;26;19946;-73
2024/04/20 05:37:35;;;;;;;;;;;;;;;7.31;100.00;101743.34;5331906;26;19930;-73
2024/04/20 05:40:00;;;;;;;;;;;;;;;7.27;100.00;101748.16;5330369;26;19936;-73
2024/04/20 05:42:25;;;;;;;;;;;;;;;7.40;100.00;101753.91;5295844;26;20000;-73
2024/04/20 05:44:51;;;;;;;;;;;;;;;7.41;100.00;101760.94;5332285;26;20295;-73
2024/04/20 05:47:16;;;;;;;;;;;;;;;7.44;100.00;101762.47;5334017;26;19934;-73
2024/04/20 05:49:42;;;;;;;;;;;;;;;7.49;100.00;101762.81;5331280;26;19930;-73
2024/04/20 05:52:08;;;;;;;;;;;;;;;7.48;100.00;101778.00;5304477;26;20318;-73
2024/04/20 05:54:33;;;;;;;;;;;;;;;7.50;100.00;101783.19;5300198;26;19966;-73
2024/04/20 05:56:58;;;;;;;;;;;;;;;7.34;100.00;101783.06;5331823;26;19963;-73
2024/04/20 05:59:24;;;;;;;;;;;;;;;7.30;100.00;101787.03;5329841;26;20353;-74
2024/04/20 06:01:49;;;;;;;;;;;;;;;7.33;100.00;101803.59;5333707;26;20364;-73
2024/04/20 06:04:16;;;;;;;;;;;;;;;7.32;100.00;101820.59;5303761;26;20372;-73
2024/04/20 06:06:41;;;;;;;;;;;;;;;7.38;100.00;101822.66;5332551;26;20305;-74
2024/04/20 06:09:08;;;;;;;;;;;;;;;7.38;100.00;101829.81;5331486;26;19930;-74
2024/04/20 06:11:34;;;;;;;;;;;;;;;7.26;100.00;101850.53;5313065;26;19956;-74
2024/04/20 06:13:59;;;;;;;;;;;;;;;7.28;100.00;101855.75;5326562;26;19934;-74
2024/04/20 06:16:25;;;;;;;;;;;;;;;7.35;100.00;101862.16;5331663;26;20279;-73
2024/04/20 06:18:50;;;;;;;;;;;;;;;7.56;100.00;101867.19;5330519;26;19930;-73
2024/04/20 06:21:15;;;;;;;;;;;;;;;7.68;100.00;101873.94;5334040;26;19933;-74
2024/04/20 06:23:40;;;;;;;;;;;;;;;7.66;100.00;101876.75;5332840;26;19930;-74
2024/04/20 06:26:06;;;;;;;;;;;;;;;7.66;100.00;101873.25;5332281;26;20004;-73
2024/04/20 06:28:31;;;;;;;;;;;;;;;7.67;100.00;101874.94;5322677;26;19945;-73
2024/04/20 06:30:56;;;;;;;;;;;;;;;7.70;100.00;101874.63;5326394;26;19940;-74
2024/04/20 06:33:23;;;;;;;;;;;;;;;7.66;100.00;101881.25;5297969;26;19958;-73
2024/04/20 06:35:48;;;;;;;;;;;;;;;7.81;100.00;101878.88;5328491;26;19989;-73
2024/04/20 06:38:14;;;;;;;;;;;;;;;7.77;100.00;101870.34;5327916;26;19999;-73
2024/04/20 06:40:39;;;;;;;;;;;;;;;7.76;100.00;101868.69;5322935;26;19937;-73
2024/04/20 06:43:04;;;;;;;;;;;;;;;7.68;100.00;101863.28;5326840;26;19930;-73
2024/04/20 06:45:30;;;;;;;;;;;;;;;7.77;100.00;101856.16;5329350;26;20406;-75
2024/04/20 06:47:57;;;;;;;;;;;;;;;7.82;100.00;101865.38;5330327;26;19933;-75
2024/04/20 06:50:22;;;;;;;;;;;;;;;8.07;100.00;101862.88;5331546;26;19938;-75
2024/04/20 06:52:47;;;;;;;;;;;;;;;7.98;100.00;101858.47;5331545;26;19946;-75
2024/04/20 06:55:13;;;;;;;;;;;;;;;8.04;100.00;101853.34;5329500;26;20000;-75
2024/04/20 06:57:38;;;;;;;;;;;;;;;8.23;100.00;101852.28;5327961;26;19930;-75
2024/04/20 07:00:05;;;;;;;;;;;;;;;8.30;100.00;101847.13;5329584;26;20016;-75
2024/04/20 07:02:30;;;;;;;;;;;;;;;8.45;100.00;101847.44;5327428;26;19946;-75
2024/04/20 07:04:55;;;;;;;;;;;;;;;8.42;100.00;101843.25;5297297;26;19930;-75
2024/04/20 07:07:21;;;;;;;;;;;;;;;8.36;100.00;101843.81;5326569;26;19937;-75
2024/04/20 07:09:49;;;;;;;;;;;;;;;8.28;100.00;101851.81;5296484;26;20302;-75
2024/04/20 07:12:15;;;;;;;;;;;;;;;8.01;100.00;101864.31;5325266;26;19939;-75
2024/04/20 07:14:40;;;;;;;;;;;;;;;8.07;100.00;101860.19;5294462;26;19970;-75
2024/04/20 07:17:06;;;;;;;;;;;;;;;8.05;100.00;101864.88;5329612;26;19930;-75
2024/04/20 07:19:31;;;;;;;;;;;;;;;7.96;100.00;101876.50;5327404;26;19999;-75
2024/04/20 07:21:56;;;;;;;;;;;;;;;8.00;100.00;101880.53;5329702;26;19930;-75
2024/04/20 07:24:22;;;;;;;;;;;;;;;7.96;100.00;101879.19;5298668;26;19997;-75
2024/04/20 07:26:47;;;;;;;;;;;;;;;7.96;100.00;101869.31;5329881;26;19958;-76
2024/04/20 07:29:12;;;;;;;;;;;;;;;8.05;100.00;101873.72;5301284;26;19930;-75
2024/04/20 07:31:37;;;;;;;;;;;;;;;8.08;100.00;101872.56;5298247;26;20279;-75
2024/04/20 07:34:03;;;;;;;;;;;;;;;8.17;100.00;101876.97;5290950;26;19938;-75
2024/04/20 07:36:28;;;;;;;;;;;;;;;8.08;100.00;101873.41;5321864;26;20440;-75
2024/04/20 07:38:53;;;;;;;;;;;;;;;8.33;100.00;101879.75;5329788;26;19989;-75
2024/04/20 07:41:19;;;;;;;;;;;;;;;8.45;100.00;101876.84;5329515;26;19933;-75
2024/04/20 07:43:44;;;;;;;;;;;;;;;8.59;100.00;101882.44;5329675;26;19966;-75
2024/04/20 07:46:10;;;;;;;;;;;;;;;8.81;100.00;101878.31;5328476;26;19985;-75
2024/04/20 07:48:35;;;;;;;;;;;;;;;8.55;100.00;101883.72;5331962;26;19931;-76
2024/04/20 07:51:04;;;;;;;;;;;;;;;8.75;100.00;101878.13;5293610;26;19937;-75
2024/04/20 07:53:29;;;;;;;;;;;;;;;8.99;100.00;101883.56;5317641;26;19937;-75
2024/04/20 07:55:55;;;;;;;;;;;;;;;9.07;100.00;101890.78;5293397;26;19959;-75
2024/04/20 07:58:20;;;;;;;;;;;;;;;9.01;100.00;101896.78;5330519;26;20359;-75
2024/04/20 08:00:46;;;;;;;;;;;;;;;8.87;100.00;101890.22;5320001;26;20621;-75
2024/04/20 08:03:11;;;;;;;;;;;;;;;8.82;100.00;101905.91;5296706;26;19930;-75
2024/04/20 08:05:38;;;;;;;;;;;;;;;8.54;100.00;101910.66;5331644;26;20256;-75
2024/04/20 08:08:04;;;;;;;;;;;;;;;8.58;100.00;101917.34;5328331;26;20084;-76
2024/04/20 08:10:29;;;;;;;;;;;;;;;8.54;100.00;101916.81;5302434;26;19930;-76
2024/04/20 08:12:54;;;;;;;;;;;;;;;8.45;100.00;101919.63;5329588;26;20037;-75
2024/04/20 08:15:21;;;;;;;;;;;;;;;8.59;100.00;101924.34;5298945;26;19954;-75
2024/04/20 08:17:46;;;;;;;;;;;;;;;8.55;100.00;101920.34;5331300;26;19965;-75
2024/04/20 08:20:11;;;;;;;;;;;;;;;8.64;100.00;101930.06;5331693;26;19934;-75
2024/04/20 08:22:37;;;;;;;;;;;;;;;8.71;100.00;101935.63;5331562;26;19930;-75
2024/04/20 08:25:02;;;;;;;;;;;;;;;8.91;100.00;101937.06;5303621;26;19930;-76
2024/04/20 08:27:28;;;;;;;;;;;;;;;9.08;100.00;101939.78;5331630;26;19931;-75
2024/04/20 08:29:53;;;;;;;;;;;;;;;8.98;100.00;101942.59;5296121;26;20342;-76
2024/04/20 08:32:18;;;;;;;;;;;;;;;8.92;100.00;101944.09;5299973;26;19930;-76
2024/04/20 08:34:44;;;;;;;;;;;;;;;8.97;100.00;101943.63;5327034;26;19941;-75
2024/04/20 08:37:09;;;;;;;;;;;;;;;9.10;100.00;101943.97;5329135;26;19985;-75
2024/04/20 08:39:35;;;;;;;;;;;;;;;9.20;100.00;101963.44;5322181;26;19937;-75
2024/04/20 08:42:05;;;;;;;;;;;;;;;9.19;100.00;101955.56;5325284;26;19942;-76
2024/04/20 08:44:31;;;;;;;;;;;;;;;9.08;100.00;101956.69;5326668;26;19942;-75
2024/04/20 08:46:56;;;;;;;;;;;;;;;9.02;100.00;101968.03;5329399;26;19941;-76
2024/04/20 08:49:25;;;;;;;;;;;;;;;9.06;100.00;101966.72;5300367;26;19930;-76
2024/04/20 08:51:53;;;;;;;;;;;;;;;8.87;100.00;101956.25;5331345;26;20304;-75
2024/04/20 08:54:18;;;;;;;;;;;;;;;8.91;100.00;101976.34;5329868;26;19938;-75
2024/04/20 08:56:44;;;;;;;;;;;;;;;8.81;100.00;101976.47;5328577;26;19930;-75
2024/04/20 08:59:12;;;;;;;;;;;;;;;8.64;100.00;101982.72;5304410;26;19930;-75
2024/04/20 09:01:38;;;;;;;;;;;;;;;8.70;100.00;101988.28;5327602;26;20000;-73
2024/04/20 09:04:04;;;;;;;;;;;;;;;8.49;100.00;101988.66;5334038;26;19937;-73
2024/04/20 09:06:29;;;;;;;;;;;;;;;8.50;100.00;102000.19;5302842;26;19930;-73
2024/04/20 09:08:57;;;;;;;;;;;;;;;8.51;100.00;102000.03;5331108;26;19936;-73
2024/04/20 09:11:22;;;;;;;;;;;;;;;8.36;100.00;101996.19;5330216;26;19930;-73
2024/04/20 09:13:48;;;;;;;;;;;;;;;8.28;100.00;102001.50;5300350;26;19930;-74
2024/04/20 09:16:14;;;;;;;;;;;;;;;8.15;100.00;102002.72;5329423;26;19930;-73
2024/04/20 09:18:39;;;;;;;;;;;;;;;8.35;100.00;101998.03;5330971;26;19945;-73
2024/04/20 09:21:05;;;;;;;;;;;;;;;8.66;100.00;102000.31;5333567;26;20345;-73
2024/04/20 09:23:30;;;;;;;;;;;;;;;8.87;100.00;101999.06;5301458;26;19930;-73
2024/04/20 09:25:55;;;;;;;;;;;;;;;8.83;100.00;101988.69;5331208;26;19930;-74
2024/04/20 09:28:23;;;;;;;;;;;;;;;9.02;100.00;101987.59;5331531;26;20771;-74
2024/04/20 09:30:50;;;;;;;;;;;;;;;9.10;100.00;101984.13;5331407;26;19953;-74
2024/04/20 09:33:17;;;;;;;;;;;;;;;9.06;100.00;101988.13;5329354;26;20246;-73
2024/04/20 09:35:42;;;;;;;;;;;;;;;9.03;100.00;101985.78;5330743;26;20351;-74
2024/04/20 09:38:07;;;;;;;;;;;;;;;9.21;100.00;101975.81;5301327;26;19930;-73
2024/04/20 09:40:33;;;;;;;;;;;;;;;9.36;100.00;101975.19;5303364;26;19930;-73
2024/04/20 09:43:00;;;;;;;;;;;;;;;9.35;100.00;101982.38;5329510;26;20385;-73
2024/04/20 09:45:27;;;;;;;;;;;;;;;9.65;100.00;101990.81;5295868;26;19930;-73
2024/04/20 09:47:56;;;;;;;;;;;;;;;9.53;100.00;101995.66;5332686;26;19930;-74
2024/04/20 09:50:24;;;;;;;;;;;;;;;9.44;100.00;101996.63;5331442;26;19937;-73
2024/04/20 09:53:08;;;;;;;;;;;;;;;9.53;100.00;102000.19;5324506;26;19949;-73
2024/04/20 09:55:38;;;;;;;;;;;;;;;9.44;100.00;101996.63;5324857;26;19930;-73
2024/04/20 09:58:03;;;;;;;;;;;;;;;9.46;100.00;101981.25;5327266;26;20656;-74
2024/04/20 10:00:29;;;;;;;;;;;;;;;9.80;100.00;101991.00;5322973;26;19930;-73
2024/04/20 10:02:55;;;;;;;;;;;;;;;9.68;100.00;101994.00;5296335;26;19930;-74
2024/04/20 10:05:21;;;;;;;;;;;;;;;9.63;100.00;101998.19;5335946;26;19930;-74
2024/04/20 10:07:47;;;;;;;;;;;;;;;9.48;100.00;101997.97;5299450;26;19989;-73
2024/04/20 10:10:15;;;;;;;;;;;;;;;9.63;100.00;102000.84;5326651;26;19954;-74
2024/04/20 10:13:03;;;;;;;;;;;;;;;9.91;100.00;101996.06;5334990;26;19942;-73
2024/04/20 10:15:46;;;;;;;;;;;;;;;10.40;100.00;101993.41;5325007;26;19938;-74
2024/04/20 10:18:11;;;;;;;;;;;;;;;10.44;100.00;101994.72;5302784;26;20290;-74
2024/04/20 10:20:37;;;;;;;;;;;;;;;10.22;100.00;101984.69;5331404;26;19930;-73
2024/04/20 10:23:18;;;;;;;;;;;;;;;10.07;100.00;101971.94;5330671;26;19974;-73
2024/04/20 10:25:46;;;;;;;;;;;;;;;10.05;100.00;101976.63;5328716;26;19941;-73
2024/04/20 10:28:22;;;;;;;;;;;;;;;9.90;100.00;101983.66;5328816;26;19930;-73
2024/04/20 10:30:52;;;;;;;;;;;;;;;9.88;100.00;101983.00;5329287;26;20269;-73
2024/04/20 10:33:24;;;;;;;;;;;;;;;9.80;100.00;101988.34;5332001;26;19930;-73
2024/04/20 10:35:59;;;;;;;;;;;;;;;9.88;100.00;101981.13;5323142;26;20783;-73
2024/04/20 10:38:25;;;;;;;;;;;;;;;9.76;100.00;101978.97;5330077;26;19960;-73
2024/04/20 10:40:51;;;;;;;;;;;;;;;9.62;100.00;101981.28;5298702;26;19937;-73
2024/04/20 10:43:20;;;;;;;;;;;;;;;9.67;100.00;101981.63;5330463;26;20374;-74
2024/04/20 10:45:46;;;;;;;;;;;;;;;9.85;100.00;101973.44;5331184;26;19937;-73
2024/04/20 10:48:12;;;;;;;;;;;;;;;10.27;100.00;101967.13;5332547;26;20489;-73
2024/04/20 10:50:42;;;;;;;;;;;;;;;10.19;100.00;101954.50;5329924;26;19945;-73
2024/04/20 10:53:08;;;;;;;;;;;;;;;10.39;100.00;101964.91;5332348;26;19930;-74
2024/04/20 10:55:33;;;;;;;;;;;;;;;10.25;100.00;101958.34;5301542;26;19930;-74
2024/04/20 10:57:59;;;;;;;;;;;;;;;10.06;100.00;101964.06;5331149;26;19973;-73
2024/04/20 11:00:24;;;;;;;;;;;;;;;10.01;100.00;101956.53;5329114;26;19930;-73
2024/04/20 11:02:51;;;;;;;;;;;;;;;10.27;100.00;101948.34;5330997;26;19958;-73
2024/04/20 11:05:16;;;;;;;;;;;;;;;10.21;100.00;101957.00;5332840;26;20408;-73
2024/04/20 11:07:41;;;;;;;;;;;;;;;10.31;100.00;101963.06;5333175;26;19944;-73
2024/04/20 11:10:06;;;;;;;;;;;;;;;10.10;100.00;101968.94;5329939;26;19939;-74
2024/04/20 11:12:32;;;;;;;;;;;;;;;10.08;100.00;101964.75;5303266;26;19930;-74
2024/04/20 11:15:01;;;;;;;;;;;;;;;10.25;100.00;101961.03;5329987;26;19938;-74
2024/04/20 11:17:27;;;;;;;;;;;;;;;10.44;100.00;101962.53;5330941;26;19930;-74
2024/04/20 11:19:53;;;;;;;;;;;;;;;10.61;100.00;101960.66;5330844;26;19938;-74
2024/04/20 11:22:18;;;;;;;;;;;;;;;10.81;100.00;101959.25;5333631;26;19956;-74
2024/04/20 11:24:46;;;;;;;;;;;;;;;10.94;100.00;101956.03;5330160;26;20374;-74
2024/04/20 11:27:14;;;;;;;;;;;;;;;10.77;100.00;101968.69;5334170;26;19938;-73
2024/04/20 11:29:40;;;;;;;;;;;;;;;10.52;100.00;101967.06;5329646;26;19937;-73
2024/04/20 11:32:06;;;;;;;;;;;;;;;10.77;100.00;101966.00;5330926;26;19958;-73
2024/04/20 11:34:32;;;;;;;;;;;;;;;10.73;100.00;101966.50;5330242;26;19930;-74
2024/04/20 11:36:57;;;;;;;;;;;;;;;10.75;100.00;101973.38;5331489;26;19930;-74
2024/04/20 11:39:22;;;;;;;;;;;;;;;10.65;100.00;101966.53;5331013;26;20394;-74
2024/04/20 11:41:47;;;;;;;;;;;;;;;10.75;100.00;101967.16;5332214;26;20027;-73
2024/04/20 11:44:13;;;;;;;;;;;;;;;10.88;100.00;101953.19;5296302;26;19930;-74
2024/04/20 11:46:39;;;;;;;;;;;;;;;10.99;100.00;101948.31;5332530;26;19937;-73
2024/04/20 11:49:14;;;;;;;;;;;;;;;10.73;100.00;101969.19;5328840;26;19938;-73
2024/04/20 11:54:25;;;;;;;;;;;;;;;11.09;100.00;101956.97;5329331;26;19937;-73
2024/04/20 11:56:54;;;;;;;;;;;;;;;11.02;100.00;101955.16;5332440;26;19949;-73
2024/04/20 11:59:19;;;;;;;;;;;;;;;11.16;100.00;101961.66;5328569;26;19930;-73
2024/04/20 12:01:44;;;;;;;;;;;;;;;11.06;100.00;101965.38;5327987;26;19938;-73
2024/04/20 12:04:14;;;;;;;;;;;;;;;11.40;100.00;101964.22;5326957;26;19936;-73
2024/04/20 12:06:39;;;;;;;;;;;;;;;11.38;100.00;101966.22;5297554;26;19930;-73
2024/04/20 12:09:04;;;;;;;;;;;;;;;11.61;100.00;101973.50;5328624;26;19930;-73
2024/04/20 12:11:30;;;;;;;;;;;;;;;11.94;100.00;101972.25;5326302;26;19934;-73
2024/04/20 12:13:55;;;;;;;;;;;;;;;11.56;100.00;101971.31;5329323;26;19930;-73
2024/04/20 12:16:20;;;;;;;;;;;;;;;11.30;100.00;101979.69;5296603;26;20264;-73
2024/04/20 12:18:46;;;;;;;;;;;;;;;11.20;100.00;101979.09;5325036;26;19942;-73
2024/04/20 12:21:13;;;;;;;;;;;;;;;11.04;100.00;101985.34;5332139;26;19941;-74
2024/04/20 12:23:41;;;;;;;;;;;;;;;10.90;100.00;101991.44;5335407;26;19937;-73
2024/04/20 12:26:07;;;;;;;;;;;;;;;10.97;100.00;101995.97;5331310;26;19945;-73
2024/04/20 12:28:32;;;;;;;;;;;;;;;10.79;100.00;101998.00;5327882;26;19931;-73
2024/04/20 12:31:00;;;;;;;;;;;;;;;10.84;100.00;101998.34;5331844;26;19930;-73